createdAt,value
2023-01-23T00:02:45.982Z,8.68
2023-01-23T00:06:00.044Z,8.70
2023-01-23T00:09:03.614Z,8.70
2023-01-23T00:12:05.358Z,8.68
2023-01-23T00:15:10.719Z,8.77
2023-01-23T00:18:12.355Z,7.65
2023-01-23T00:21:18.206Z,8.90
2023-01-23T00:27:23.045Z,8.32
2023-01-23T00:30:24.551Z,8.20
2023-01-23T00:33:28.082Z,7.65
2023-01-23T00:36:32.611Z,8.00
2023-01-23T00:39:36.224Z,8.57
2023-01-23T00:42:37.708Z,9.18
2023-01-23T00:45:41.223Z,8.02
2023-01-23T00:48:42.975Z,8.52
2023-01-23T00:54:47.852Z,8.73
2023-01-23T00:57:51.314Z,7.75
2023-01-23T01:00:52.937Z,9.10
2023-01-23T01:03:57.211Z,7.90
2023-01-23T01:06:58.691Z,8.27
2023-01-23T01:10:02.715Z,9.05
2023-01-23T01:13:04.283Z,8.35
2023-01-23T01:16:08.369Z,8.25
2023-01-23T01:19:11.952Z,8.05
2023-01-23T01:22:15.643Z,8.32
2023-01-23T01:25:17.443Z,8.10
2023-01-23T01:31:22.987Z,7.95
2023-01-23T01:34:26.534Z,8.27
2023-01-23T01:37:28.006Z,8.60
2023-01-23T01:40:34.244Z,8.60
2023-01-23T01:43:36.138Z,8.70
2023-01-23T01:46:40.313Z,8.50
2023-01-23T01:49:42.026Z,8.93
2023-01-23T01:52:45.937Z,8.93
2023-01-23T01:55:48.796Z,9.15
2023-01-23T01:58:53.456Z,10.25
2023-01-23T02:02:04.628Z,11.13
2023-01-23T02:05:16.455Z,16.58
2023-01-23T02:08:42.368Z,13.45
2023-01-23T02:11:45.887Z,8.95
2023-01-23T02:14:47.446Z,8.27
2023-01-23T02:17:52.487Z,8.52
2023-01-23T02:20:57.135Z,8.18
2023-01-23T02:24:16.505Z,7.60
2023-01-23T02:27:17.955Z,8.90
2023-01-23T02:30:22.203Z,8.77
2023-01-23T02:33:25.815Z,8.50
2023-01-23T02:39:36.493Z,8.20
2023-01-23T02:42:44.233Z,8.38
2023-01-23T02:45:48.377Z,9.00
2023-01-23T02:48:53.084Z,9.20
2023-01-23T02:51:56.338Z,8.60
2023-01-23T02:55:00.436Z,8.68
2023-01-23T02:58:20.481Z,8.70
2023-01-23T03:01:25.113Z,7.95
2023-01-23T03:04:27.549Z,8.52
2023-01-23T03:07:31.068Z,8.40
2023-01-23T03:10:32.569Z,8.02
2023-01-23T03:13:36.108Z,8.73
2023-01-23T03:22:46.300Z,7.05
2023-01-23T03:25:57.830Z,7.72
2023-01-23T03:29:21.310Z,8.93
2023-01-23T03:32:25.535Z,8.68
2023-01-23T03:38:32.337Z,9.43
2023-01-23T03:41:33.883Z,8.63
2023-01-23T03:44:40.388Z,8.60
2023-01-23T03:47:41.873Z,7.97
2023-01-23T03:50:45.518Z,8.77
2023-01-23T03:53:47.306Z,8.80
2023-01-23T03:56:51.508Z,8.35
2023-01-23T04:00:13.545Z,8.68
2023-01-23T04:03:39.952Z,8.27
2023-01-23T04:06:42.386Z,8.07
2023-01-23T04:09:47.251Z,7.80
2023-01-23T04:12:48.721Z,7.88
2023-01-23T04:15:52.309Z,8.20
2023-01-23T04:18:54.415Z,8.57
2023-01-23T04:21:59.101Z,8.77
2023-01-23T04:25:00.779Z,8.30
2023-01-23T04:28:04.444Z,8.32
2023-01-23T04:31:06.255Z,7.43
2023-01-23T04:34:11.340Z,7.63
2023-01-23T04:37:14.127Z,9.82
2023-01-23T04:40:18.161Z,8.32
2023-01-23T04:43:29.927Z,8.32
2023-01-23T04:46:33.639Z,8.57
2023-01-23T04:49:42.787Z,8.35
2023-01-23T04:52:46.817Z,8.48
2023-01-23T04:55:49.152Z,8.20
2023-01-23T04:58:53.821Z,8.23
2023-01-23T05:01:57.163Z,8.48
2023-01-23T05:05:01.696Z,8.40
2023-01-23T05:08:03.560Z,8.85
2023-01-23T05:11:07.245Z,8.23
2023-01-23T05:14:08.815Z,8.98
2023-01-23T05:17:12.341Z,8.25
2023-01-23T05:20:22.979Z,9.45
2023-01-23T05:23:26.543Z,9.98
2023-01-23T05:26:29.142Z,9.05
2023-01-23T05:29:33.185Z,9.05
2023-01-23T05:32:43.304Z,8.70
2023-01-23T05:36:01.530Z,9.88
2023-01-23T05:39:03.404Z,9.60
2023-01-23T05:42:07.158Z,9.93
2023-01-23T05:45:26.138Z,9.25
2023-01-23T05:51:33.200Z,9.63
2023-01-23T05:54:37.365Z,10.93
2023-01-23T05:57:38.966Z,9.65
2023-01-23T06:01:14.578Z,10.32
2023-01-23T06:04:34.690Z,11.05
2023-01-23T06:07:48.185Z,11.15
2023-01-23T06:10:50.356Z,12.05
2023-01-23T06:13:55.227Z,11.43
2023-01-23T06:16:57.250Z,11.10
2023-01-23T06:20:00.770Z,11.90
2023-01-23T06:23:02.751Z,10.90
2023-01-23T06:26:06.288Z,11.80
2023-01-23T06:29:08.967Z,11.70
2023-01-23T06:35:14.970Z,11.32
2023-01-23T06:38:19.675Z,15.85
2023-01-23T06:41:23.929Z,23.23
2023-01-23T06:44:29.644Z,16.92
2023-01-23T06:47:31.678Z,12.00
2023-01-23T06:50:38.338Z,12.68
2023-01-23T06:53:39.970Z,13.60
2023-01-23T06:56:43.585Z,12.10
2023-01-23T06:59:46.386Z,13.07
2023-01-23T07:02:52.522Z,13.35
2023-01-23T07:05:54.061Z,12.57
2023-01-23T07:08:57.539Z,13.40
2023-01-23T07:11:59.577Z,13.15
2023-01-23T07:15:06.592Z,12.77
2023-01-23T07:18:12.861Z,12.55
2023-01-23T07:21:16.410Z,12.65
2023-01-23T07:24:17.874Z,13.27
2023-01-23T07:27:21.452Z,14.48
2023-01-23T07:30:23.432Z,13.00
2023-01-23T07:33:27.821Z,13.75
2023-01-23T07:36:29.641Z,14.52
2023-01-23T07:42:34.621Z,13.48
2023-01-23T07:45:38.387Z,13.20
2023-01-23T07:48:39.883Z,13.35
2023-01-23T07:51:43.600Z,14.35
2023-01-23T07:54:45.087Z,14.68
2023-01-23T07:57:48.843Z,14.85
2023-01-23T08:00:50.389Z,14.15
2023-01-23T08:03:54.257Z,13.77
2023-01-23T08:06:55.703Z,15.23
2023-01-23T08:09:59.173Z,14.30
2023-01-23T08:13:00.639Z,14.60
2023-01-23T08:16:05.404Z,16.63
2023-01-23T08:19:07.798Z,10.45
2023-01-23T08:22:11.299Z,16.20
2023-01-23T08:25:12.793Z,14.80
2023-01-23T08:28:16.304Z,15.40
2023-01-23T08:31:18.177Z,15.30
2023-01-23T08:34:23.487Z,13.10
2023-01-23T08:37:25.082Z,12.82
2023-01-23T08:40:28.752Z,14.82
2023-01-23T08:43:30.714Z,12.82
2023-01-23T08:46:34.199Z,14.38
2023-01-23T08:49:36.064Z,13.13
2023-01-23T08:52:39.659Z,13.65
2023-01-23T08:55:41.293Z,13.50
2023-01-23T08:58:45.639Z,13.35
2023-01-23T09:01:47.467Z,12.63
2023-01-23T09:07:52.394Z,13.13
2023-01-23T09:11:00.821Z,15.50
2023-01-23T09:14:02.354Z,14.65
2023-01-23T09:17:06.015Z,14.98
2023-01-23T09:20:08.743Z,13.95
2023-01-23T09:23:12.267Z,13.70
2023-01-23T09:26:14.655Z,13.80
2023-01-23T09:29:18.165Z,12.88
2023-01-23T09:32:19.614Z,13.13
2023-01-23T09:35:23.232Z,13.63
2023-01-23T09:38:24.896Z,13.02
2023-01-23T09:44:41.674Z,12.60
2023-01-23T09:47:49.066Z,12.88
2023-01-23T09:50:58.926Z,11.77
2023-01-23T09:54:15.617Z,13.02
2023-01-23T09:57:22.240Z,12.07
2023-01-23T10:00:35.890Z,12.35
2023-01-23T10:03:37.663Z,11.73
2023-01-23T10:10:36.440Z,10.00
2023-01-23T10:13:58.851Z,10.70
2023-01-23T10:17:28.598Z,11.13
2023-01-23T10:20:44.568Z,10.90
2023-01-23T10:24:19.412Z,11.65
2023-01-23T10:27:44.608Z,10.88
2023-01-23T10:30:53.965Z,11.20
2023-01-23T10:34:09.369Z,11.48
2023-01-23T10:37:21.604Z,12.97
2023-01-23T10:40:45.783Z,12.30
2023-01-23T10:43:50.579Z,11.85
2023-01-23T10:46:59.385Z,11.13
2023-01-23T10:50:01.885Z,12.02
2023-01-23T10:53:07.882Z,13.00
2023-01-23T10:56:16.290Z,12.98
2023-01-23T10:59:50.575Z,11.00
2023-01-23T11:02:52.470Z,11.15
2023-01-23T11:06:05.233Z,11.60
2023-01-23T11:09:19.340Z,11.77
2023-01-23T11:12:31.880Z,12.90
2023-01-23T11:15:38.066Z,12.98
2023-01-23T11:18:52.606Z,11.50
2023-01-23T11:22:00.179Z,12.20
2023-01-23T11:25:27.845Z,12.52
2023-01-23T11:28:34.499Z,11.90
2023-01-23T11:31:41.305Z,11.80
2023-01-23T11:34:50.171Z,13.27
2023-01-23T11:37:56.402Z,11.48
2023-01-23T11:40:58.360Z,12.88
2023-01-23T11:44:08.048Z,12.10
2023-01-23T11:47:43.269Z,11.55
2023-01-23T11:50:55.789Z,12.20
2023-01-23T11:54:12.493Z,11.40
2023-01-23T11:57:46.044Z,12.65
2023-01-23T12:01:19.939Z,12.43
2023-01-23T12:04:43.399Z,12.70
2023-01-23T12:07:53.497Z,12.57
2023-01-23T12:11:19.630Z,11.60
2023-01-23T12:14:34.106Z,11.18
2023-01-23T12:17:56.492Z,10.68
2023-01-23T12:21:10.680Z,9.57
2023-01-23T12:24:31.579Z,10.98
2023-01-23T12:27:40.151Z,9.93
2023-01-23T12:31:05.656Z,10.07
2023-01-23T12:34:42.020Z,9.82
2023-01-23T12:38:21.465Z,8.73
2023-01-23T12:41:41.235Z,9.70
2023-01-23T12:45:14.470Z,10.65
2023-01-23T12:48:23.774Z,9.60
2023-01-23T12:51:36.356Z,9.38
2023-01-23T12:54:42.953Z,9.13
2023-01-23T12:57:59.489Z,9.73
2023-01-23T13:01:23.715Z,9.27
2023-01-23T13:04:49.032Z,9.65
2023-01-23T13:08:25.247Z,9.57
2023-01-23T13:11:42.675Z,9.52
2023-01-23T13:15:06.975Z,9.38
2023-01-23T13:21:48.896Z,9.68
2023-01-23T13:25:16.939Z,10.13
2023-01-23T13:28:45.895Z,9.65
2023-01-23T13:31:52.021Z,9.73
2023-01-23T13:34:53.672Z,10.55
2023-01-23T13:37:58.750Z,10.38
2023-01-23T13:41:03.799Z,11.50
2023-01-23T13:44:21.329Z,11.15
2023-01-23T14:23:34.245Z,10.75
2023-01-23T14:26:49.607Z,11.57
2023-01-23T14:30:02.906Z,12.00
2023-01-23T14:33:17.301Z,12.60
2023-01-23T14:36:19.387Z,11.65
2023-01-23T14:39:27.255Z,13.18
2023-01-23T14:42:30.079Z,12.23
2023-01-23T14:45:35.159Z,12.63
2023-01-23T14:48:40.485Z,12.52
2023-01-23T14:51:55.614Z,13.25
2023-01-23T14:55:01.184Z,11.85
2023-01-23T14:58:21.840Z,12.30
2023-01-23T15:01:24.146Z,12.75
2023-01-23T15:04:29.121Z,12.40
2023-01-23T15:07:30.636Z,12.67
2023-01-23T15:10:43.171Z,11.18
2023-01-23T15:13:50.159Z,13.35
2023-01-23T15:17:18.335Z,12.48
2023-01-23T15:20:37.618Z,11.65
2023-01-23T15:23:59.612Z,11.38
2023-01-23T15:27:02.970Z,12.20
2023-01-23T15:30:39.505Z,11.05
2023-01-23T15:40:18.953Z,11.05
2023-01-23T15:43:22.499Z,10.98
2023-01-23T15:46:24.054Z,11.15
2023-01-23T15:49:28.678Z,11.88
2023-01-23T15:52:47.509Z,11.07
2023-01-23T15:55:51.098Z,12.50
2023-01-23T15:58:52.767Z,11.45
2023-01-23T16:01:56.247Z,11.20
2023-01-23T16:04:58.119Z,12.23
2023-01-23T16:11:04.354Z,11.55
2023-01-23T16:14:15.359Z,11.93
2023-01-23T16:17:17.434Z,11.73
2023-01-23T16:20:26.116Z,12.88
2023-01-23T16:23:31.230Z,11.02
2023-01-23T16:26:39.668Z,10.27
2023-01-23T16:29:43.424Z,12.10
2023-01-23T16:32:47.425Z,10.95
2023-01-23T16:35:50.218Z,11.45
2023-01-23T16:38:57.526Z,11.00
2023-01-23T16:41:59.387Z,11.55
